createdAt,value
2022-12-08T00:01:32.806Z,100923.56
2022-12-08T00:04:01.393Z,100924.50
2022-12-08T00:06:58.069Z,100921.00
2022-12-08T00:09:39.986Z,100914.00
2022-12-08T00:12:13.843Z,100913.03
2022-12-08T00:14:47.004Z,100907.72
2022-12-08T00:17:16.542Z,100900.66
2022-12-08T00:19:44.201Z,100901.41
2022-12-08T00:22:15.301Z,100912.84
2022-12-08T00:24:45.705Z,100905.66
2022-12-08T00:27:15.254Z,100899.47
2022-12-08T00:29:45.070Z,100893.16
2022-12-08T00:32:12.520Z,100900.34
2022-12-08T00:34:39.670Z,100895.94
2022-12-08T00:37:06.740Z,100895.88
2022-12-08T00:39:33.958Z,100893.16
2022-12-08T00:42:12.941Z,100894.03
2022-12-08T00:44:42.135Z,100897.50
2022-12-08T00:47:10.283Z,100894.00
2022-12-08T00:49:37.522Z,100899.19
2022-12-08T00:52:05.143Z,100897.47
2022-12-08T00:54:32.312Z,100905.44
2022-12-08T00:57:00.358Z,100906.31
2022-12-08T00:59:28.801Z,100916.91
2022-12-08T01:01:55.977Z,100914.34
2022-12-08T01:04:24.358Z,100917.88
2022-12-08T01:06:51.444Z,100917.00
2022-12-08T01:09:19.201Z,100909.94
2022-12-08T01:11:47.356Z,100916.13
2022-12-08T01:14:15.017Z,100915.22
2022-12-08T01:16:42.739Z,100919.63
2022-12-08T01:19:15.258Z,100906.31
2022-12-08T01:21:43.697Z,100910.66
2022-12-08T01:24:20.528Z,100901.84
2022-12-08T01:26:49.225Z,100914.16
2022-12-08T01:29:16.697Z,100902.66
2022-12-08T01:31:43.830Z,100905.41
2022-12-08T01:34:12.278Z,100907.25
2022-12-08T01:36:39.508Z,100909.03
2022-12-08T01:39:13.949Z,100908.97
2022-12-08T01:41:43.814Z,100897.47
2022-12-08T01:44:11.414Z,100908.06
2022-12-08T01:46:44.622Z,100898.31
2022-12-08T01:49:19.527Z,100896.56
2022-12-08T01:52:39.503Z,100900.91
2022-12-08T01:55:16.064Z,100892.16
2022-12-08T01:57:48.957Z,100892.16
2022-12-08T02:00:20.237Z,100893.94
2022-12-08T02:03:09.530Z,100894.84
2022-12-08T02:05:40.226Z,100893.06
2022-12-08T02:08:11.142Z,100882.47
2022-12-08T02:10:41.481Z,100886.88
2022-12-08T02:13:15.559Z,100882.44
2022-12-08T02:15:54.798Z,100873.63
2022-12-08T02:18:36.907Z,100878.00
2022-12-08T02:21:32.637Z,100874.41
2022-12-08T02:24:26.906Z,100876.16
2022-12-08T02:27:14.911Z,100869.97
2022-12-08T02:29:50.756Z,100863.78
2022-12-08T02:32:58.262Z,100861.97
2022-12-08T02:35:34.223Z,100854.88
2022-12-08T02:38:13.013Z,100854.03
2022-12-08T02:41:14.528Z,100851.31
2022-12-08T02:43:47.828Z,100854.88
2022-12-08T02:46:23.755Z,100848.72
2022-12-08T02:48:52.793Z,100856.72
2022-12-08T02:51:19.994Z,100848.84
2022-12-08T02:53:48.549Z,100856.78
2022-12-08T02:56:21.858Z,100862.94
2022-12-08T02:59:22.309Z,100853.28
2022-12-08T03:02:12.708Z,100855.94
2022-12-08T03:04:53.548Z,100848.88
2022-12-08T03:07:48.336Z,100848.88
2022-12-08T03:10:53.412Z,100851.59
2022-12-08T03:13:30.084Z,100849.06
2022-12-08T03:15:57.414Z,100851.78
2022-12-08T03:18:31.963Z,100852.84
2022-12-08T03:21:00.015Z,100849.28
2022-12-08T03:23:27.255Z,100842.06
2022-12-08T03:26:09.733Z,100841.09
2022-12-08T03:28:38.049Z,100843.88
2022-12-08T03:31:10.775Z,100840.50
2022-12-08T03:33:44.130Z,100841.41
2022-12-08T03:36:12.398Z,100830.72
2022-12-08T03:38:45.658Z,100838.69
2022-12-08T03:41:19.927Z,100835.16
2022-12-08T03:43:53.624Z,100825.31
2022-12-08T03:48:51.503Z,100825.53
2022-12-08T03:51:19.748Z,100826.50
2022-12-08T03:53:47.371Z,100819.31
2022-12-08T03:56:34.570Z,100820.25
2022-12-08T03:59:02.531Z,100822.09
2022-12-08T04:01:29.864Z,100829.03
2022-12-08T04:03:56.928Z,100830.84
2022-12-08T04:06:24.375Z,100829.22
2022-12-08T04:08:52.418Z,100818.56
2022-12-08T04:11:20.659Z,100823.84
2022-12-08T04:13:48.043Z,100824.91
2022-12-08T04:16:22.953Z,100820.63
2022-12-08T04:18:50.327Z,100818.75
2022-12-08T04:21:18.290Z,100815.97
2022-12-08T04:23:46.253Z,100810.69
2022-12-08T04:26:14.738Z,100814.25
2022-12-08T04:28:42.217Z,100807.84
2022-12-08T04:31:09.427Z,100802.66
2022-12-08T04:33:36.670Z,100803.66
2022-12-08T04:36:05.952Z,100800.94
2022-12-08T04:38:34.292Z,100794.72
2022-12-08T04:41:02.407Z,100795.63
2022-12-08T04:43:29.831Z,100803.78
2022-12-08T04:45:56.943Z,100799.38
2022-12-08T04:48:24.136Z,100805.59
2022-12-08T04:50:51.614Z,100809.22
2022-12-08T04:53:19.858Z,100808.25
2022-12-08T04:55:48.751Z,100818.00
2022-12-08T04:58:18.878Z,100818.78
2022-12-08T05:00:47.615Z,100810.84
2022-12-08T05:03:16.016Z,100816.03
2022-12-08T05:05:43.806Z,100816.81
2022-12-08T05:08:11.864Z,100810.69
2022-12-08T05:10:39.483Z,100803.59
2022-12-08T05:13:06.589Z,100806.44
2022-12-08T05:15:33.790Z,100816.09
2022-12-08T05:18:00.840Z,100817.78
2022-12-08T05:20:28.363Z,100816.91
2022-12-08T05:22:55.621Z,100816.91
2022-12-08T05:25:22.676Z,100811.53
2022-12-08T05:27:49.839Z,100803.59
2022-12-08T05:30:16.952Z,100805.38
2022-12-08T05:32:44.014Z,100804.56
2022-12-08T05:35:12.002Z,100798.47
2022-12-08T05:37:39.120Z,100795.72
2022-12-08T05:40:08.710Z,100794.91
2022-12-08T05:42:36.033Z,100794.91
2022-12-08T05:45:03.275Z,100800.22
2022-12-08T05:47:35.729Z,100804.75
2022-12-08T05:50:04.240Z,100802.09
2022-12-08T05:52:32.347Z,100810.84
2022-12-08T05:54:59.420Z,100807.28
2022-12-08T05:57:26.497Z,100808.13
2022-12-08T05:59:53.567Z,100812.69
2022-12-08T06:02:20.752Z,100807.38
2022-12-08T06:04:50.750Z,100795.72
2022-12-08T06:07:17.985Z,100796.84
2022-12-08T06:09:45.201Z,100794.28
2022-12-08T06:12:12.253Z,100800.47
2022-12-08T06:14:39.914Z,100803.13
2022-12-08T06:17:07.806Z,100805.72
2022-12-08T06:19:35.288Z,100803.06
2022-12-08T06:22:02.470Z,100805.69
2022-12-08T06:24:29.512Z,100818.75
2022-12-08T06:26:56.439Z,100812.91
2022-12-08T06:29:23.590Z,100808.47
2022-12-08T06:31:52.974Z,100812.97
2022-12-08T06:34:20.067Z,100818.28
2022-12-08T06:36:47.127Z,100824.34
2022-12-08T06:39:14.122Z,100824.31
2022-12-08T06:41:59.845Z,100812.72
2022-12-08T06:44:26.901Z,100821.56
2022-12-08T06:46:54.329Z,100817.34
2022-12-08T06:49:21.904Z,100816.56
2022-12-08T06:51:48.955Z,100813.03
2022-12-08T06:54:15.973Z,100812.16
2022-12-08T06:56:43.039Z,100806.84
2022-12-08T06:59:10.490Z,100810.63
2022-12-08T07:01:37.641Z,100809.69
2022-12-08T07:04:05.092Z,100813.16
2022-12-08T07:06:32.122Z,100811.38
2022-12-08T07:08:59.266Z,100815.69
2022-12-08T07:11:27.170Z,100817.44
2022-12-08T07:13:57.096Z,100827.19
2022-12-08T07:16:24.807Z,100828.03
2022-12-08T07:18:52.102Z,100832.41
2022-12-08T07:21:19.125Z,100827.13
2022-12-08T07:23:51.528Z,100822.69
2022-12-08T07:26:24.593Z,100821.84
2022-12-08T07:28:51.655Z,100822.09
2022-12-08T07:31:25.210Z,100825.56
2022-12-08T07:33:53.190Z,100824.81
2022-12-08T07:36:20.465Z,100821.34
2022-12-08T07:38:48.721Z,100816.97
2022-12-08T07:41:19.297Z,100822.09
2022-12-08T07:43:46.812Z,100823.19
2022-12-08T07:46:16.678Z,100830.25
2022-12-08T07:48:44.288Z,100824.06
2022-12-08T07:51:13.900Z,100828.41
2022-12-08T07:53:48.417Z,100819.41
2022-12-08T07:56:19.163Z,100816.59
2022-12-08T07:58:46.998Z,100820.03
2022-12-08T08:01:21.270Z,100824.44
2022-12-08T08:03:48.737Z,100821.66
2022-12-08T08:06:16.390Z,100819.81
2022-12-08T08:08:43.539Z,100820.75
2022-12-08T08:11:17.422Z,100815.63
2022-12-08T08:13:48.535Z,100821.84
2022-12-08T08:16:15.635Z,100817.44
2022-12-08T08:18:43.591Z,100817.44
2022-12-08T08:21:43.643Z,100822.63
2022-12-08T08:24:00.778Z,100817.25
2022-12-08T08:26:28.089Z,100814.00
2022-12-08T08:28:55.088Z,100815.06
2022-12-08T08:31:27.186Z,100816.78
2022-12-08T08:33:56.442Z,100814.13
2022-12-08T08:36:23.668Z,100817.56
2022-12-08T08:38:51.228Z,100818.38
2022-12-08T08:41:18.260Z,100821.78
2022-12-08T08:43:45.368Z,100829.66
2022-12-08T08:46:12.784Z,100825.28
2022-12-08T08:48:40.779Z,100828.69
2022-12-08T08:51:14.094Z,100831.25
2022-12-08T08:53:42.596Z,100839.19
2022-12-08T08:56:19.941Z,100833.66
2022-12-08T08:58:49.696Z,100834.31
2022-12-08T09:01:26.623Z,100829.88
2022-12-08T09:03:54.953Z,100825.41
2022-12-08T09:06:24.818Z,100833.22
2022-12-08T09:08:52.177Z,100841.03
2022-12-08T09:11:19.530Z,100846.31
2022-12-08T09:13:52.225Z,100839.28
2022-12-08T09:16:19.643Z,100844.56
2022-12-08T09:18:48.361Z,100847.91
2022-12-08T09:21:23.490Z,100837.38
2022-12-08T09:23:56.463Z,100842.69
2022-12-08T09:26:26.892Z,100838.28
2022-12-08T09:28:56.819Z,100833.75
2022-12-08T09:31:26.140Z,100838.06
2022-12-08T09:33:53.669Z,100831.78
2022-12-08T09:36:21.444Z,100837.78
2022-12-08T09:38:51.608Z,100839.69
2022-12-08T09:41:48.347Z,100837.94
2022-12-08T09:44:41.294Z,100825.56
2022-12-08T09:47:21.698Z,100813.97
2022-12-08T09:50:03.945Z,100811.34
2022-12-08T09:52:44.311Z,100816.53
2022-12-08T09:55:36.633Z,100814.50
2022-12-08T09:58:12.618Z,100819.53
2022-12-08T10:00:39.851Z,100821.25
2022-12-08T10:03:16.702Z,100816.81
2022-12-08T10:05:56.430Z,100815.84
2022-12-08T10:08:42.560Z,100811.19
2022-12-08T10:11:19.775Z,100805.13
2022-12-08T10:14:16.173Z,100803.31
2022-12-08T10:16:50.309Z,100804.06
2022-12-08T10:19:25.588Z,100805.66
2022-12-08T10:22:00.951Z,100801.19
2022-12-08T10:24:46.421Z,100799.56
2022-12-08T10:27:13.832Z,100802.97
2022-12-08T10:29:41.361Z,100794.91
2022-12-08T10:32:35.493Z,100793.84
2022-12-08T10:35:15.503Z,100795.41
2022-12-08T10:38:00.167Z,100786.31
2022-12-08T10:40:40.602Z,100784.59
2022-12-08T10:43:19.142Z,100787.13
2022-12-08T10:45:46.397Z,100784.41
2022-12-08T10:48:21.691Z,100781.00
2022-12-08T10:50:58.121Z,100789.78
2022-12-08T10:53:32.080Z,100774.59
2022-12-08T10:56:02.109Z,100782.44
2022-12-08T10:58:41.655Z,100777.88
2022-12-08T11:01:17.705Z,100773.38
2022-12-08T11:03:56.084Z,100763.63
2022-12-08T11:06:33.192Z,100762.88
2022-12-08T11:09:05.507Z,100752.16
2022-12-08T11:11:51.586Z,100753.94
2022-12-08T11:14:31.942Z,100759.25
2022-12-08T11:17:23.238Z,100749.50
2022-12-08T11:20:04.001Z,100741.53
2022-12-08T11:22:59.753Z,100737.94
2022-12-08T11:25:28.159Z,100730.69
2022-12-08T11:27:59.634Z,100742.19
2022-12-08T11:30:34.020Z,100740.28
2022-12-08T11:33:14.802Z,100738.09
2022-12-08T11:35:46.026Z,100740.72
2022-12-08T11:38:24.000Z,100745.94
2022-12-08T11:41:06.125Z,100741.22
2022-12-08T11:43:35.477Z,100742.00
2022-12-08T11:46:12.711Z,100739.84
2022-12-08T11:49:06.651Z,100739.94
2022-12-08T11:51:56.671Z,100737.34
2022-12-08T11:54:36.245Z,100730.31
2022-12-08T11:57:07.731Z,100727.53
2022-12-08T11:59:36.180Z,100728.13
2022-12-08T12:02:05.742Z,100721.06
2022-12-08T12:04:46.170Z,100722.69
2022-12-08T12:08:03.039Z,100715.56
2022-12-08T12:11:09.446Z,100710.19
2022-12-08T12:13:48.005Z,100710.38
2022-12-08T12:16:42.481Z,100704.88
2022-12-08T12:19:19.163Z,100695.06
2022-12-08T12:21:53.031Z,100704.69
2022-12-08T12:24:30.489Z,100697.34
2022-12-08T12:27:29.637Z,100691.28
2022-12-08T12:30:08.110Z,100686.88
2022-12-08T12:33:02.467Z,100682.44
2022-12-08T12:35:37.155Z,100684.88
2022-12-08T12:38:37.586Z,100684.66
2022-12-08T12:41:07.744Z,100677.59
2022-12-08T12:43:38.267Z,100683.09
2022-12-08T12:46:37.128Z,100682.44
2022-12-08T12:49:43.752Z,100684.03
2022-12-08T12:52:16.608Z,100679.63
2022-12-08T12:55:03.915Z,100667.00
2022-12-08T12:57:52.399Z,100666.88
2022-12-08T13:00:24.122Z,100663.16
2022-12-08T13:02:53.897Z,100662.16
2022-12-08T13:05:28.004Z,100653.59
2022-12-08T13:08:03.209Z,100658.06
2022-12-08T13:10:50.314Z,100655.25
2022-12-08T13:13:19.213Z,100658.63
2022-12-08T13:16:17.136Z,100662.09
2022-12-08T13:18:52.311Z,100655.75
2022-12-08T13:21:23.291Z,100649.59
2022-12-08T13:24:10.805Z,100646.28
2022-12-08T13:26:51.074Z,100644.50
2022-12-08T13:29:24.217Z,100639.09
2022-12-08T13:32:35.444Z,100639.09
2022-12-08T13:35:16.147Z,100636.16
2022-12-08T13:37:54.777Z,100627.34
2022-12-08T13:40:32.262Z,100621.09
2022-12-08T13:43:21.529Z,100633.38
2022-12-08T13:57:36.222Z,100616.34
2022-12-08T14:00:15.914Z,100608.38
2022-12-08T14:02:48.179Z,100616.16
2022-12-08T14:05:21.738Z,100617.06
2022-12-08T14:07:56.959Z,100616.16
2022-12-08T14:10:29.143Z,100627.50
2022-12-08T14:13:03.472Z,100623.16
2022-12-08T14:15:37.736Z,100617.19
2022-12-08T14:18:20.074Z,100623.41
2022-12-08T14:21:21.651Z,100612.69
2022-12-08T14:23:49.036Z,100609.97
2022-12-08T14:26:16.112Z,100611.84
2022-12-08T14:28:45.242Z,100623.31
2022-12-08T14:31:14.584Z,100628.56
2022-12-08T14:33:42.612Z,100625.81
2022-12-08T14:36:10.394Z,100623.16
2022-12-08T14:38:37.554Z,100630.19
2022-12-08T14:41:08.851Z,100632.81
2022-12-08T14:43:36.573Z,100631.09
2022-12-08T14:46:20.070Z,100630.06
2022-12-08T14:48:47.608Z,100631.09
2022-12-08T14:51:23.635Z,100632.00
2022-12-08T14:54:13.373Z,100637.31
2022-12-08T14:56:50.398Z,100631.22
2022-12-08T14:59:30.490Z,100625.91
2022-12-08T15:02:27.493Z,100608.31
2022-12-08T15:05:18.438Z,100612.06
2022-12-08T15:08:02.621Z,100620.16
2022-12-08T15:10:38.190Z,100627.25
2022-12-08T15:13:11.712Z,100624.59
2022-12-08T15:15:56.919Z,100629.91
2022-12-08T15:18:40.810Z,100637.88
2022-12-08T15:21:12.617Z,100648.50
2022-12-08T15:23:48.515Z,100642.34
2022-12-08T15:26:24.896Z,100653.81
2022-12-08T15:28:52.165Z,100656.56
2022-12-08T15:31:19.687Z,100646.94
2022-12-08T15:33:46.814Z,100650.53
2022-12-08T15:36:13.803Z,100645.28
2022-12-08T15:38:40.931Z,100636.53
2022-12-08T15:41:13.036Z,100642.69
2022-12-08T15:43:41.864Z,100639.09
2022-12-08T15:46:08.964Z,100629.41
2022-12-08T15:48:37.984Z,100638.25
2022-12-08T15:51:05.217Z,100632.00
2022-12-08T15:53:32.338Z,100630.22
2022-12-08T15:56:26.898Z,100632.06
2022-12-08T15:58:54.730Z,100635.66
2022-12-08T16:01:23.698Z,100640.09
2022-12-08T16:07:19.651Z,100640.19
2022-12-08T16:09:37.101Z,100627.84
2022-12-08T16:13:06.962Z,100631.34
2022-12-08T16:18:16.767Z,100634.91
2022-12-08T16:21:08.103Z,100634.91
2022-12-08T16:23:42.932Z,100635.81
2022-12-08T16:26:44.358Z,100637.53
2022-12-08T16:29:06.286Z,100633.22
2022-12-08T16:31:34.138Z,100633.22
2022-12-08T16:34:01.394Z,100619.00
2022-12-08T16:36:29.075Z,100621.81
2022-12-08T16:38:56.276Z,100615.69
2022-12-08T16:41:41.581Z,100614.75
2022-12-08T16:44:08.605Z,100614.13
2022-12-08T16:46:37.156Z,100613.31
2022-12-08T16:49:04.943Z,100610.66
2022-12-08T16:51:31.967Z,100617.69
2022-12-08T16:53:59.119Z,100617.69
2022-12-08T16:56:32.687Z,100624.75
2022-12-08T16:59:02.542Z,100633.47
2022-12-08T17:01:30.242Z,100634.44
2022-12-08T17:06:44.482Z,100632.72
2022-12-08T17:09:11.559Z,100628.25
2022-12-08T17:11:43.008Z,100631.78
2022-12-08T17:14:13.866Z,100636.22
2022-12-08T17:16:41.499Z,100632.63
2022-12-08T17:19:13.789Z,100633.47
2022-12-08T17:21:41.766Z,100636.13
2022-12-08T17:24:08.859Z,100624.59
2022-12-08T17:26:36.538Z,100625.47
2022-12-08T17:29:04.302Z,100629.97
2022-12-08T17:31:32.996Z,100630.81
2022-12-08T17:34:08.682Z,100624.59
2022-12-08T17:36:36.129Z,100623.81
2022-12-08T17:39:04.638Z,100630.06
2022-12-08T17:41:32.173Z,100634.47
2022-12-08T17:43:59.157Z,100623.84
2022-12-08T17:46:27.688Z,100622.16
2022-12-08T17:48:55.381Z,100622.22
2022-12-08T17:51:22.697Z,100616.91
2022-12-08T17:53:49.921Z,100619.72
2022-12-08T17:56:21.281Z,100624.22
2022-12-08T17:58:54.350Z,100622.56
2022-12-08T18:01:24.106Z,100624.34
2022-12-08T18:03:51.944Z,100624.34
2022-12-08T18:06:19.435Z,100624.44
2022-12-08T18:08:46.789Z,100632.31
2022-12-08T18:11:19.338Z,100631.41
2022-12-08T18:13:49.079Z,100634.91
2022-12-08T18:16:17.886Z,100633.13
2022-12-08T18:18:44.922Z,100636.63
2022-12-08T18:21:12.510Z,100641.94
2022-12-08T18:23:42.405Z,100643.75
2022-12-08T18:26:12.786Z,100641.94
2022-12-08T18:28:40.406Z,100633.91
2022-12-08T18:31:13.863Z,100641.88
2022-12-08T18:33:43.822Z,100637.50
2022-12-08T18:36:14.871Z,100643.75
2022-12-08T18:38:42.664Z,100639.38
2022-12-08T18:41:24.966Z,100630.47
2022-12-08T18:43:56.367Z,100633.13
2022-12-08T18:46:24.677Z,100635.78
2022-12-08T18:48:52.536Z,100641.09
2022-12-08T18:51:24.284Z,100643.66
2022-12-08T18:53:52.471Z,100637.63
2022-12-08T18:56:32.506Z,100641.22
2022-12-08T18:59:05.817Z,100648.25
2022-12-08T19:01:34.872Z,100641.09
2022-12-08T19:06:56.956Z,100621.69
2022-12-08T19:09:26.812Z,100624.44
2022-12-08T19:11:54.137Z,100623.59
2022-12-08T19:14:27.755Z,100624.34
2022-12-08T19:16:55.299Z,100626.28
2022-12-08T19:19:22.842Z,100618.19
2022-12-08T19:21:50.347Z,100619.00
2022-12-08T19:24:18.056Z,100622.50
2022-12-08T19:26:45.315Z,100620.63
2022-12-08T19:29:12.790Z,100616.34
2022-12-08T19:31:41.070Z,100627.88
2022-12-08T19:34:09.627Z,100612.97
2022-12-08T19:36:42.341Z,100619.97
2022-12-08T19:39:41.195Z,100623.59
2022-12-08T19:42:39.339Z,100620.97
2022-12-08T19:45:16.627Z,100615.75
2022-12-08T19:47:44.632Z,100618.41
2022-12-08T19:50:33.153Z,100618.41
2022-12-08T19:53:01.268Z,100623.63
2022-12-08T19:55:28.796Z,100629.81
2022-12-08T19:57:57.161Z,100627.94
2022-12-08T20:00:24.656Z,100629.75
2022-12-08T20:02:51.995Z,100635.84
2022-12-08T20:05:19.422Z,100627.00
2022-12-08T20:07:46.574Z,100623.44
2022-12-08T20:10:22.184Z,100628.75
2022-12-08T20:12:49.763Z,100629.66
2022-12-08T20:15:17.115Z,100616.38
2022-12-08T20:17:44.372Z,100611.94
2022-12-08T20:20:14.493Z,100616.38
2022-12-08T20:22:42.653Z,100610.31
2022-12-08T20:25:12.958Z,100614.69
2022-12-08T20:27:41.396Z,100623.50
2022-12-08T20:30:15.030Z,100624.44
2022-12-08T20:32:43.990Z,100614.69
2022-12-08T20:35:11.095Z,100616.53
2022-12-08T20:37:38.400Z,100608.56
2022-12-08T20:40:07.172Z,100612.06
2022-12-08T20:42:37.564Z,100605.91
2022-12-08T20:45:07.341Z,100599.69
2022-12-08T20:47:35.640Z,100604.06
2022-12-08T20:50:05.662Z,100604.91
2022-12-08T20:52:33.487Z,100604.84
2022-12-08T20:55:00.590Z,100609.28
2022-12-08T20:57:27.805Z,100610.16
2022-12-08T20:59:57.356Z,100597.81
2022-12-08T21:02:24.551Z,100598.75
2022-12-08T21:04:51.910Z,100605.75
2022-12-08T21:07:19.165Z,100603.13
2022-12-08T21:09:46.403Z,100606.72
2022-12-08T21:12:13.901Z,100608.44
2022-12-08T21:14:41.289Z,100607.56
2022-12-08T21:17:08.418Z,100605.84
2022-12-08T21:19:35.956Z,100611.94
2022-12-08T21:22:03.555Z,100611.94
2022-12-08T21:24:34.401Z,100618.13
2022-12-08T21:27:02.208Z,100610.94
2022-12-08T21:29:29.569Z,100621.66
2022-12-08T21:32:01.263Z,100617.09
2022-12-08T21:34:34.252Z,100619.00
2022-12-08T21:37:02.781Z,100616.38
2022-12-08T21:39:30.177Z,100627.88
2022-12-08T21:42:16.232Z,100626.09
2022-12-08T21:44:43.897Z,100621.69
2022-12-08T21:47:11.409Z,100619.97
2022-12-08T21:49:38.868Z,100622.63
2022-12-08T21:52:06.252Z,100632.31
2022-12-08T21:54:33.417Z,100627.88
2022-12-08T21:57:00.714Z,100634.97
2022-12-08T21:59:28.255Z,100639.44
2022-12-08T22:01:55.755Z,100632.31
2022-12-08T22:04:25.260Z,100633.19
2022-12-08T22:06:52.739Z,100631.41
2022-12-08T22:09:20.005Z,100624.31
2022-12-08T22:11:47.603Z,100623.44
2022-12-08T22:14:15.418Z,100621.84
2022-12-08T22:16:44.143Z,100625.44
2022-12-08T22:19:12.479Z,100628.09
2022-12-08T22:21:40.393Z,100626.28
2022-12-08T22:24:08.279Z,100628.09
2022-12-08T22:26:35.670Z,100628.13
2022-12-08T22:29:02.912Z,100629.94
2022-12-08T22:31:31.618Z,100629.88
2022-12-08T22:33:59.663Z,100625.44
2022-12-08T22:36:28.123Z,100623.72
2022-12-08T22:38:55.832Z,100624.56
2022-12-08T22:41:23.793Z,100625.56
2022-12-08T22:43:51.722Z,100620.34
2022-12-08T22:46:27.535Z,100619.44
2022-12-08T22:48:55.710Z,100627.38
2022-12-08T22:51:23.751Z,100623.84
2022-12-08T22:53:51.325Z,100622.09
2022-12-08T22:56:19.348Z,100627.28
2022-12-08T22:58:47.224Z,100628.22
2022-12-08T23:01:31.138Z,100618.59
2022-12-08T23:04:00.362Z,100625.69
2022-12-08T23:06:29.642Z,100621.25
2022-12-08T23:08:57.924Z,100621.25
2022-12-08T23:11:28.978Z,100618.59
2022-12-08T23:13:58.477Z,100623.03
2022-12-08T23:16:26.537Z,100616.03
2022-12-08T23:18:54.016Z,100619.59
2022-12-08T23:21:21.595Z,100618.81
2022-12-08T23:23:48.932Z,100613.50
2022-12-08T23:26:25.785Z,100625.84
2022-12-08T23:28:54.067Z,100614.38
2022-12-08T23:31:22.924Z,100607.22
2022-12-08T23:33:51.128Z,100607.25
2022-12-08T23:36:20.441Z,100594.94
2022-12-08T23:38:48.021Z,100586.03
2022-12-08T23:41:16.861Z,100593.03
2022-12-08T23:43:50.718Z,100586.81
2022-12-08T23:46:21.311Z,100585.06
2022-12-08T23:48:49.595Z,100585.97
2022-12-08T23:51:17.673Z,100587.69
2022-12-08T23:53:45.496Z,100592.13
2022-12-08T23:56:15.844Z,100589.47
2022-12-08T23:58:44.410Z,100585.97
